createdAt,value
2019-03-20T00:02:10.037Z,3.24
2019-03-20T00:04:36.611Z,3.20
2019-03-20T00:07:03.194Z,3.17
2019-03-20T00:09:29.767Z,3.14
2019-03-20T00:11:56.341Z,3.11
2019-03-20T00:14:22.924Z,3.06
2019-03-20T00:16:49.498Z,3.08
2019-03-20T00:19:16.083Z,3.07
2019-03-20T00:21:42.662Z,3.06
2019-03-20T00:24:09.239Z,3.02
2019-03-20T00:26:35.815Z,3.00
2019-03-20T00:29:02.394Z,2.93
2019-03-20T00:31:28.978Z,2.89
2019-03-20T00:33:55.544Z,2.83
2019-03-20T00:36:22.127Z,2.81
2019-03-20T00:38:48.710Z,2.77
2019-03-20T00:41:15.393Z,2.75
2019-03-20T00:43:41.970Z,2.73
2019-03-20T00:46:08.552Z,2.69
2019-03-20T00:48:35.125Z,2.65
2019-03-20T00:51:01.721Z,2.60
2019-03-20T00:53:28.296Z,2.58
2019-03-20T00:55:54.897Z,2.58
2019-03-20T00:58:21.476Z,2.59
2019-03-20T01:00:48.087Z,2.59
2019-03-20T01:03:14.663Z,2.57
2019-03-20T01:05:41.262Z,2.56
2019-03-20T01:08:07.835Z,2.56
2019-03-20T01:10:34.500Z,2.58
2019-03-20T01:13:01.110Z,2.58
2019-03-20T01:15:27.677Z,2.60
2019-03-20T01:17:54.249Z,2.60
2019-03-20T01:20:20.820Z,2.61
2019-03-20T01:22:47.516Z,2.61
2019-03-20T01:25:14.102Z,2.61
2019-03-20T01:27:40.709Z,2.62
2019-03-20T01:30:07.337Z,2.62
2019-03-20T01:32:33.988Z,2.62
2019-03-20T01:35:00.583Z,2.61
2019-03-20T01:37:27.183Z,2.60
2019-03-20T01:39:53.777Z,2.60
2019-03-20T01:42:20.408Z,2.59
2019-03-20T01:44:46.986Z,2.59
2019-03-20T01:47:13.599Z,2.57
2019-03-20T01:49:40.179Z,2.58
2019-03-20T01:52:06.849Z,2.58
2019-03-20T01:54:33.549Z,2.58
2019-03-20T01:57:00.157Z,2.58
2019-03-20T01:59:26.732Z,2.57
2019-03-20T02:01:53.344Z,2.57
2019-03-20T02:04:19.922Z,2.56
2019-03-20T02:06:46.537Z,2.56
2019-03-20T02:09:13.123Z,2.57
2019-03-20T02:11:39.711Z,2.55
2019-03-20T02:14:06.292Z,2.55
2019-03-20T02:16:32.909Z,2.53
2019-03-20T02:18:59.492Z,2.52
2019-03-20T02:21:26.079Z,2.52
2019-03-20T02:23:52.665Z,2.52
2019-03-20T02:26:19.261Z,2.52
2019-03-20T02:28:45.914Z,2.51
2019-03-20T02:31:12.540Z,2.49
2019-03-20T02:33:39.190Z,2.44
2019-03-20T02:36:05.805Z,2.41
2019-03-20T02:38:32.390Z,2.40
2019-03-20T02:40:58.945Z,2.40
2019-03-20T02:43:25.510Z,2.40
2019-03-20T02:45:52.092Z,2.40
2019-03-20T02:48:18.668Z,2.43
2019-03-20T02:50:45.245Z,2.45
2019-03-20T02:53:11.817Z,2.45
2019-03-20T02:55:38.424Z,2.45
2019-03-20T02:58:05.073Z,2.48
2019-03-20T03:00:31.702Z,2.52
2019-03-20T03:02:58.281Z,2.55
2019-03-20T03:05:24.857Z,2.59
2019-03-20T03:07:51.430Z,2.61
2019-03-20T03:10:18.031Z,2.64
2019-03-20T03:12:44.672Z,2.65
2019-03-20T03:15:11.246Z,2.66
2019-03-20T03:17:37.867Z,2.66
2019-03-20T03:20:04.517Z,2.67
2019-03-20T03:22:31.119Z,2.64
2019-03-20T03:24:57.693Z,2.64
2019-03-20T03:27:24.304Z,2.61
2019-03-20T03:29:50.866Z,2.59
2019-03-20T03:32:17.578Z,2.56
2019-03-20T03:34:44.159Z,2.53
2019-03-20T03:37:10.743Z,2.51
2019-03-20T03:39:37.334Z,2.47
2019-03-20T03:42:03.923Z,2.45
2019-03-20T03:44:30.514Z,2.41
2019-03-20T03:46:57.131Z,2.38
2019-03-20T03:49:23.699Z,2.36
2019-03-20T03:51:50.292Z,2.34
2019-03-20T03:54:16.862Z,2.31
2019-03-20T03:56:43.473Z,2.29
2019-03-20T03:59:10.050Z,2.28
2019-03-20T04:01:36.652Z,2.25
2019-03-20T04:04:03.227Z,2.24
2019-03-20T04:06:35.536Z,2.22
2019-03-20T04:08:58.094Z,2.22
2019-03-20T04:11:24.674Z,2.21
2019-03-20T04:13:51.254Z,2.20
2019-03-20T04:16:17.819Z,2.19
2019-03-20T04:18:44.402Z,2.17
2019-03-20T04:21:10.986Z,2.15
2019-03-20T04:23:37.561Z,2.13
2019-03-20T04:26:04.139Z,2.11
2019-03-20T04:28:30.770Z,2.08
2019-03-20T04:30:57.369Z,2.06
2019-03-20T04:33:23.949Z,2.04
2019-03-20T04:35:50.530Z,2.02
2019-03-20T04:38:17.208Z,2.01
2019-03-20T04:40:43.795Z,2.00
2019-03-20T04:43:10.371Z,2.00
2019-03-20T04:45:36.953Z,2.00
2019-03-20T04:48:03.529Z,1.99
2019-03-20T04:50:30.108Z,1.98
2019-03-20T04:52:56.672Z,1.97
2019-03-20T04:55:23.239Z,1.96
2019-03-20T04:57:49.822Z,1.96
2019-03-20T05:00:16.439Z,1.96
2019-03-20T05:02:43.052Z,1.95
2019-03-20T05:05:09.615Z,1.94
2019-03-20T05:07:36.231Z,1.96
2019-03-20T05:10:02.807Z,1.98
2019-03-20T05:12:29.398Z,1.98
2019-03-20T05:14:55.970Z,2.01
2019-03-20T05:17:22.572Z,2.03
2019-03-20T05:19:49.148Z,2.05
2019-03-20T05:22:15.755Z,2.09
2019-03-20T05:24:42.328Z,2.14
2019-03-20T05:27:08.905Z,2.18
2019-03-20T05:29:35.501Z,2.22
2019-03-20T05:32:02.133Z,2.25
2019-03-20T05:34:28.706Z,2.29
2019-03-20T05:36:55.278Z,2.31
2019-03-20T05:39:21.870Z,2.33
2019-03-20T05:41:48.444Z,2.36
2019-03-20T05:44:15.021Z,2.39
2019-03-20T05:46:41.589Z,2.43
2019-03-20T05:49:08.166Z,2.45
2019-03-20T05:51:34.756Z,2.48
2019-03-20T05:54:01.318Z,2.52
2019-03-20T05:56:27.888Z,2.55
2019-03-20T05:58:54.468Z,2.58
2019-03-20T06:01:21.061Z,2.63
2019-03-20T06:03:47.636Z,2.69
2019-03-20T06:06:14.220Z,2.74
2019-03-20T06:08:40.804Z,2.79
2019-03-20T06:11:07.492Z,2.83
2019-03-20T06:13:34.061Z,2.85
2019-03-20T06:16:00.634Z,2.87
2019-03-20T06:18:27.255Z,2.93
2019-03-20T06:20:53.836Z,2.96
2019-03-20T06:23:20.461Z,3.03
2019-03-20T06:25:47.031Z,3.10
2019-03-20T06:28:13.646Z,3.20
2019-03-20T06:30:40.229Z,3.27
2019-03-20T06:33:07.096Z,3.36
2019-03-20T06:35:33.714Z,3.43
2019-03-20T06:38:00.326Z,3.49
2019-03-20T06:40:26.892Z,3.55
2019-03-20T06:42:55.284Z,3.63
2019-03-20T06:45:21.791Z,3.71
2019-03-20T06:47:48.396Z,3.79
2019-03-20T06:50:14.965Z,3.88
2019-03-20T06:52:41.576Z,3.97
2019-03-20T06:55:08.154Z,4.06
2019-03-20T06:57:34.739Z,4.16
2019-03-20T07:00:01.322Z,4.27
2019-03-20T07:02:27.888Z,4.38
2019-03-20T07:04:54.549Z,4.50
2019-03-20T07:07:21.118Z,4.64
2019-03-20T07:09:47.713Z,4.73
2019-03-20T07:12:14.286Z,4.83
2019-03-20T07:14:40.861Z,4.95
2019-03-20T07:17:07.448Z,5.10
2019-03-20T07:19:34.155Z,5.22
2019-03-20T07:22:00.728Z,5.36
2019-03-20T07:24:27.324Z,5.49
2019-03-20T07:26:53.899Z,5.66
2019-03-20T07:29:20.496Z,5.81
2019-03-20T07:31:47.070Z,5.95
2019-03-20T07:34:13.719Z,6.07
2019-03-20T07:36:40.313Z,6.21
2019-03-20T07:39:06.895Z,6.36
2019-03-20T07:41:33.469Z,6.50
2019-03-20T07:44:00.068Z,6.64
2019-03-20T07:46:26.645Z,6.79
2019-03-20T07:48:53.246Z,6.94
2019-03-20T07:51:19.828Z,7.06
2019-03-20T07:53:46.469Z,7.18
2019-03-20T07:56:13.085Z,7.27
2019-03-20T07:58:39.674Z,7.38
2019-03-20T08:01:06.250Z,7.52
2019-03-20T08:03:32.863Z,7.66
2019-03-20T08:05:59.438Z,7.80
2019-03-20T08:08:26.059Z,7.98
2019-03-20T08:10:52.631Z,8.14
2019-03-20T08:13:19.252Z,8.28
2019-03-20T08:15:45.840Z,8.41
2019-03-20T08:18:12.411Z,8.51
2019-03-20T08:20:38.981Z,8.64
2019-03-20T08:23:05.551Z,8.81
2019-03-20T08:25:32.135Z,8.98
2019-03-20T08:27:58.716Z,9.15
2019-03-20T08:30:25.286Z,9.34
2019-03-20T08:32:51.865Z,9.54
2019-03-20T08:35:18.492Z,9.72
2019-03-20T08:37:45.065Z,9.87
2019-03-20T08:40:11.645Z,9.98
2019-03-20T08:42:38.217Z,10.07
2019-03-20T08:45:04.802Z,10.17
2019-03-20T08:47:31.380Z,10.33
2019-03-20T08:49:57.959Z,10.53
2019-03-20T08:52:24.536Z,10.79
2019-03-20T08:54:51.118Z,11.05
2019-03-20T08:57:17.690Z,11.30
2019-03-20T08:59:44.277Z,11.56
2019-03-20T09:02:10.867Z,11.80
2019-03-20T09:04:37.426Z,11.99
2019-03-20T09:07:04.004Z,12.13
2019-03-20T09:09:30.582Z,12.19
2019-03-20T09:11:57.165Z,12.23
2019-03-20T09:14:23.744Z,12.26
2019-03-20T09:16:50.319Z,12.32
2019-03-20T09:19:16.907Z,12.40
2019-03-20T09:21:43.489Z,12.54
2019-03-20T09:24:10.062Z,12.80
2019-03-20T09:26:36.638Z,13.05
2019-03-20T09:29:03.238Z,13.33
2019-03-20T09:31:29.822Z,13.54
2019-03-20T09:33:56.484Z,13.73
2019-03-20T09:36:23.188Z,13.77
2019-03-20T09:38:49.805Z,13.84
2019-03-20T09:41:16.380Z,14.01
2019-03-20T09:43:43.018Z,14.23
2019-03-20T09:46:09.595Z,14.53
2019-03-20T09:48:36.170Z,14.82
2019-03-20T09:51:02.778Z,14.99
2019-03-20T09:53:29.368Z,15.16
2019-03-20T09:55:55.976Z,15.43
2019-03-20T09:58:22.558Z,15.57
2019-03-20T10:00:49.167Z,15.49
2019-03-20T10:03:15.751Z,15.30
2019-03-20T10:05:42.358Z,15.15
2019-03-20T10:08:09.006Z,15.13
2019-03-20T10:10:35.661Z,15.28
2019-03-20T10:13:02.338Z,15.61
2019-03-20T10:15:28.931Z,16.03
2019-03-20T10:17:55.513Z,16.27
2019-03-20T10:20:22.116Z,16.39
2019-03-20T10:22:48.693Z,16.40
2019-03-20T10:25:15.302Z,16.57
2019-03-20T10:27:41.884Z,16.87
2019-03-20T10:30:08.516Z,17.22
2019-03-20T10:32:35.088Z,17.31
2019-03-20T10:35:01.699Z,17.34
2019-03-20T10:37:28.270Z,17.33
2019-03-20T10:39:54.871Z,17.24
2019-03-20T10:42:21.447Z,17.09
2019-03-20T10:44:48.068Z,16.96
2019-03-20T10:47:14.643Z,16.91
2019-03-20T10:49:41.256Z,17.08
2019-03-20T10:52:07.849Z,17.44
2019-03-20T10:54:34.465Z,17.91
2019-03-20T10:57:01.131Z,18.57
2019-03-20T10:59:27.736Z,19.40
2019-03-20T11:01:54.318Z,20.35
2019-03-20T11:04:20.926Z,21.32
2019-03-20T11:06:47.502Z,22.29
2019-03-20T11:09:18.580Z,23.00
2019-03-20T11:11:42.395Z,23.56
2019-03-20T11:14:08.971Z,23.87
2019-03-20T11:16:35.565Z,24.18
2019-03-20T11:19:02.220Z,24.48
2019-03-20T11:21:28.799Z,24.96
2019-03-20T11:23:55.392Z,25.41
2019-03-20T11:26:21.972Z,25.71
2019-03-20T11:28:48.543Z,25.81
2019-03-20T11:31:15.134Z,25.75
2019-03-20T11:33:41.701Z,25.93
2019-03-20T11:36:08.277Z,26.49
2019-03-20T11:38:34.930Z,26.61
2019-03-20T11:41:01.519Z,26.23
2019-03-20T11:43:28.092Z,25.78
2019-03-20T11:45:54.687Z,25.24
2019-03-20T11:48:21.242Z,24.77
2019-03-20T11:50:47.863Z,24.41
2019-03-20T11:53:14.442Z,24.11
2019-03-20T11:55:41.017Z,24.29
2019-03-20T11:58:09.842Z,24.61
2019-03-20T12:00:36.443Z,24.27
2019-03-20T12:03:03.015Z,23.76
2019-03-20T12:05:29.606Z,23.27
2019-03-20T12:07:56.186Z,22.85
2019-03-20T12:10:22.779Z,22.51
2019-03-20T12:12:49.358Z,22.12
2019-03-20T12:15:15.983Z,21.87
2019-03-20T12:17:42.583Z,21.72
2019-03-20T12:20:09.200Z,21.85
2019-03-20T12:22:35.814Z,22.01
2019-03-20T12:25:02.441Z,22.27
2019-03-20T12:27:29.025Z,23.13
2019-03-20T12:29:55.613Z,25.34
2019-03-20T12:32:22.189Z,27.42
2019-03-20T12:34:48.764Z,29.45
2019-03-20T12:37:15.344Z,31.38
2019-03-20T12:39:52.634Z,33.06
2019-03-20T12:42:10.215Z,34.63
2019-03-20T12:44:36.789Z,36.12
2019-03-20T12:47:03.372Z,37.57
2019-03-20T12:49:29.956Z,38.81
2019-03-20T12:51:56.583Z,38.66
2019-03-20T12:54:23.208Z,36.93
2019-03-20T12:56:49.784Z,34.93
2019-03-20T12:59:16.366Z,32.85
2019-03-20T13:01:42.937Z,31.05
2019-03-20T13:04:09.525Z,31.84
2019-03-20T13:06:36.089Z,33.28
2019-03-20T13:09:03.779Z,34.51
2019-03-20T13:11:30.496Z,34.45
2019-03-20T13:13:57.086Z,33.87
2019-03-20T13:16:23.663Z,32.22
2019-03-20T13:18:50.251Z,30.40
2019-03-20T13:21:16.822Z,28.50
2019-03-20T13:23:43.404Z,26.70
2019-03-20T13:26:09.977Z,25.22
2019-03-20T13:28:36.562Z,23.94
2019-03-20T13:31:03.155Z,22.68
2019-03-20T13:33:29.771Z,21.53
2019-03-20T13:35:56.391Z,20.53
2019-03-20T13:38:22.965Z,19.63
2019-03-20T13:40:49.541Z,18.91
2019-03-20T13:43:16.148Z,18.36
2019-03-20T13:45:42.714Z,17.94
2019-03-20T13:48:09.314Z,17.58
2019-03-20T13:50:35.935Z,17.34
2019-03-20T13:53:02.508Z,17.32
2019-03-20T13:55:29.123Z,20.09
2019-03-20T13:57:55.706Z,23.56
2019-03-20T14:00:22.310Z,26.78
2019-03-20T14:02:48.924Z,29.71
2019-03-20T14:05:15.505Z,32.30
2019-03-20T14:07:42.130Z,34.76
2019-03-20T14:10:08.709Z,36.86
2019-03-20T14:12:35.311Z,38.59
2019-03-20T14:15:01.881Z,40.12
2019-03-20T14:17:28.473Z,41.50
2019-03-20T14:19:55.051Z,42.66
2019-03-20T14:22:21.676Z,43.72
2019-03-20T14:24:48.256Z,44.43
2019-03-20T14:27:14.847Z,44.88
2019-03-20T14:29:41.420Z,44.91
2019-03-20T14:32:08.006Z,45.06
2019-03-20T14:34:34.582Z,45.25
2019-03-20T14:37:01.180Z,45.58
2019-03-20T14:39:27.749Z,45.67
2019-03-20T14:41:54.340Z,45.73
2019-03-20T14:44:20.903Z,45.85
2019-03-20T14:46:47.499Z,45.58
2019-03-20T14:49:14.070Z,44.77
2019-03-20T14:51:40.694Z,41.55
2019-03-20T14:54:07.337Z,38.25
2019-03-20T14:56:33.950Z,35.02
2019-03-20T14:59:00.530Z,32.14
2019-03-20T15:01:27.190Z,29.64
2019-03-20T15:03:53.759Z,27.60
2019-03-20T15:06:20.383Z,25.98
2019-03-20T15:08:46.958Z,24.71
2019-03-20T15:11:13.559Z,23.66
2019-03-20T15:13:40.143Z,22.80
2019-03-20T15:16:06.743Z,22.06
2019-03-20T15:18:33.326Z,21.42
2019-03-20T15:20:59.896Z,20.86
2019-03-20T15:23:26.478Z,20.35
2019-03-20T15:25:53.112Z,19.89
2019-03-20T15:28:19.685Z,19.48
2019-03-20T15:30:46.253Z,19.10
2019-03-20T15:33:12.830Z,18.75
2019-03-20T15:38:23.810Z,18.08
2019-03-20T15:40:56.196Z,17.71
2019-03-20T15:43:18.707Z,17.43
2019-03-20T15:45:45.284Z,17.16
2019-03-20T15:48:11.879Z,16.90
2019-03-20T15:50:38.477Z,16.69
2019-03-20T15:53:05.088Z,16.52
2019-03-20T15:55:31.666Z,16.38
2019-03-20T15:57:58.292Z,16.23
2019-03-20T16:00:24.857Z,16.06
2019-03-20T16:02:51.461Z,15.93
2019-03-20T16:05:18.035Z,15.77
2019-03-20T16:07:44.652Z,15.62
2019-03-20T16:10:11.229Z,15.48
2019-03-20T16:12:37.842Z,15.35
2019-03-20T16:15:04.471Z,15.25
2019-03-20T16:17:31.066Z,15.13
2019-03-20T16:19:57.642Z,14.99
2019-03-20T16:22:24.251Z,14.84
2019-03-20T16:24:50.822Z,14.68
2019-03-20T16:27:17.424Z,14.52
2019-03-20T16:29:43.997Z,14.34
2019-03-20T16:32:11.730Z,14.16
2019-03-20T16:34:38.349Z,14.00
2019-03-20T16:37:05.067Z,13.82
2019-03-20T16:39:31.645Z,13.66
2019-03-20T16:41:58.259Z,13.51
2019-03-20T16:44:24.840Z,13.36
2019-03-20T16:46:51.452Z,13.22
2019-03-20T16:49:18.032Z,13.10
2019-03-20T16:51:44.633Z,12.98
2019-03-20T16:54:11.381Z,12.84
2019-03-20T16:56:38.000Z,12.69
2019-03-20T16:59:04.601Z,12.55
2019-03-20T17:01:31.242Z,12.41
2019-03-20T17:03:57.816Z,12.26
2019-03-20T17:06:24.405Z,12.08
2019-03-20T17:08:50.983Z,11.92
2019-03-20T17:11:27.448Z,11.75
2019-03-20T17:13:45.869Z,11.62
2019-03-20T17:16:12.462Z,11.52
2019-03-20T17:18:39.031Z,11.44
2019-03-20T17:21:05.598Z,11.37
2019-03-20T17:23:32.185Z,11.31
2019-03-20T17:25:58.766Z,11.26
2019-03-20T17:28:25.344Z,11.21
2019-03-20T17:30:53.064Z,11.16
2019-03-20T17:33:19.640Z,11.08
2019-03-20T17:35:46.220Z,10.98
2019-03-20T17:38:12.798Z,10.89
2019-03-20T17:40:39.383Z,10.79
2019-03-20T17:43:05.966Z,10.71
2019-03-20T17:45:32.534Z,10.65
2019-03-20T17:47:59.106Z,10.61
2019-03-20T17:50:25.693Z,10.54
2019-03-20T17:52:52.299Z,10.46
2019-03-20T17:55:18.873Z,10.39
2019-03-20T17:57:45.637Z,10.32
2019-03-20T18:00:12.211Z,10.25
2019-03-20T18:02:40.237Z,10.17
2019-03-20T18:05:06.814Z,10.09
2019-03-20T18:07:35.312Z,10.02
2019-03-20T18:10:01.730Z,9.96
2019-03-20T18:12:29.244Z,9.86
2019-03-20T18:14:55.857Z,9.79
2019-03-20T18:17:22.460Z,9.70
2019-03-20T18:19:49.045Z,9.63
2019-03-20T18:22:15.650Z,9.55
2019-03-20T18:24:42.226Z,9.47
2019-03-20T18:27:08.809Z,9.40
2019-03-20T18:29:35.372Z,9.31
2019-03-20T18:32:01.954Z,9.24
2019-03-20T18:34:28.519Z,9.15
2019-03-20T18:36:55.106Z,9.09
2019-03-20T18:39:21.671Z,8.99
2019-03-20T18:41:57.354Z,8.91
2019-03-20T18:44:16.562Z,8.84
2019-03-20T18:46:43.135Z,8.78
2019-03-20T18:49:09.728Z,8.70
2019-03-20T18:51:36.321Z,8.64
2019-03-20T18:54:02.892Z,8.56
2019-03-20T18:56:29.540Z,8.49
2019-03-20T18:58:56.114Z,8.43
2019-03-20T19:01:22.693Z,8.37
2019-03-20T19:03:49.347Z,8.30
2019-03-20T19:06:15.918Z,8.24
2019-03-20T19:08:42.599Z,8.17
2019-03-20T19:11:09.326Z,8.10
2019-03-20T19:13:36.076Z,8.04
2019-03-20T19:16:02.651Z,7.97
2019-03-20T19:18:29.239Z,7.91
2019-03-20T19:20:55.808Z,7.85
2019-03-20T19:23:22.387Z,7.77
2019-03-20T19:25:48.968Z,7.69
2019-03-20T19:28:16.466Z,7.60
2019-03-20T19:30:43.037Z,7.55
2019-03-20T19:33:09.619Z,7.48
2019-03-20T19:35:36.240Z,7.38
2019-03-20T19:38:02.823Z,7.32
2019-03-20T19:40:29.410Z,7.24
2019-03-20T19:42:56.053Z,7.16
2019-03-20T19:45:22.641Z,7.10
2019-03-20T19:47:49.210Z,7.00
2019-03-20T19:50:15.803Z,6.94
2019-03-20T19:52:42.448Z,6.87
2019-03-20T19:55:09.166Z,6.79
2019-03-20T19:57:35.818Z,6.75
2019-03-20T20:00:02.398Z,6.69
2019-03-20T20:02:28.988Z,6.66
2019-03-20T20:04:55.571Z,6.63
2019-03-20T20:07:22.143Z,6.60
2019-03-20T20:09:48.793Z,6.56
2019-03-20T20:12:15.374Z,6.54
2019-03-20T20:14:41.967Z,6.49
2019-03-20T20:17:08.556Z,6.48
2019-03-20T20:19:35.138Z,6.44
2019-03-20T20:22:01.713Z,6.41
2019-03-20T20:24:28.315Z,6.37
2019-03-20T20:26:54.899Z,6.34
2019-03-20T20:29:21.678Z,6.30
2019-03-20T20:31:48.244Z,6.26
2019-03-20T20:34:14.824Z,6.22
2019-03-20T20:36:41.391Z,6.19
2019-03-20T20:39:08.016Z,6.14
2019-03-20T20:41:34.595Z,6.11
2019-03-20T20:44:01.167Z,6.06
2019-03-20T20:46:27.745Z,6.03
2019-03-20T20:48:54.482Z,6.01
2019-03-20T20:51:21.122Z,5.96
2019-03-20T20:53:47.729Z,5.94
2019-03-20T20:56:14.313Z,5.91
2019-03-20T20:58:40.908Z,5.87
2019-03-20T21:01:07.480Z,5.84
2019-03-20T21:03:34.116Z,5.82
2019-03-20T21:06:00.695Z,5.78
2019-03-20T21:08:28.598Z,5.77
2019-03-20T21:10:55.173Z,5.74
2019-03-20T21:13:21.792Z,5.73
2019-03-20T21:15:48.363Z,5.72
2019-03-20T21:18:15.033Z,5.69
2019-03-20T21:20:41.635Z,5.67
2019-03-20T21:23:08.196Z,5.64
2019-03-20T21:25:34.830Z,5.61
2019-03-20T21:28:01.399Z,5.59
2019-03-20T21:30:28.040Z,5.57
2019-03-20T21:32:54.617Z,5.55
2019-03-20T21:35:21.220Z,5.52
2019-03-20T21:37:47.794Z,5.50
2019-03-20T21:40:14.389Z,5.46
2019-03-20T21:42:40.967Z,5.44
2019-03-20T21:45:07.628Z,5.40
2019-03-20T21:47:34.285Z,5.35
2019-03-20T21:50:00.871Z,5.32
2019-03-20T21:52:27.463Z,5.29
2019-03-20T21:54:54.019Z,5.26
2019-03-20T21:57:20.654Z,5.23
2019-03-20T21:59:47.208Z,5.21
2019-03-20T22:02:13.808Z,5.21
2019-03-20T22:04:40.384Z,5.19
2019-03-20T22:07:06.963Z,5.17
2019-03-20T22:09:33.596Z,5.16
2019-03-20T22:12:00.287Z,5.16
2019-03-20T22:14:26.880Z,5.16
2019-03-20T22:16:53.458Z,5.15
2019-03-20T22:19:20.049Z,5.15
2019-03-20T22:21:46.633Z,5.16
2019-03-20T22:24:13.227Z,5.15
2019-03-20T22:26:39.804Z,5.15
2019-03-20T22:29:06.461Z,5.14
2019-03-20T22:31:33.035Z,5.13
2019-03-20T22:33:59.607Z,5.12
2019-03-20T22:36:26.228Z,5.10
2019-03-20T22:38:52.810Z,5.08
2019-03-20T22:41:19.411Z,5.08
2019-03-20T22:43:45.990Z,5.07
2019-03-20T22:46:12.613Z,5.05
2019-03-20T22:48:39.176Z,5.03
2019-03-20T22:51:05.797Z,5.01
2019-03-20T22:53:32.372Z,4.99
2019-03-20T22:55:59.064Z,4.97
2019-03-20T22:58:25.642Z,4.95
2019-03-20T23:00:52.257Z,4.94
2019-03-20T23:03:18.838Z,4.91
2019-03-20T23:05:45.452Z,4.90
2019-03-20T23:08:12.034Z,4.88
2019-03-20T23:10:38.601Z,4.85
2019-03-20T23:13:05.186Z,4.83
2019-03-20T23:15:31.757Z,4.81
2019-03-20T23:17:58.376Z,4.80
2019-03-20T23:20:24.938Z,4.77
2019-03-20T23:22:52.059Z,4.76
2019-03-20T23:25:18.628Z,4.75
2019-03-20T23:27:45.218Z,4.73
2019-03-20T23:30:11.789Z,4.72
2019-03-20T23:32:38.389Z,4.70
2019-03-20T23:35:04.966Z,4.68
2019-03-20T23:37:32.641Z,4.69
2019-03-20T23:39:59.210Z,4.67
2019-03-20T23:42:25.803Z,4.65
2019-03-20T23:44:52.372Z,4.62
2019-03-20T23:47:18.975Z,4.61
2019-03-20T23:49:45.549Z,4.60
2019-03-20T23:52:12.137Z,4.58
2019-03-20T23:54:38.713Z,4.56
2019-03-20T23:57:05.301Z,4.55
2019-03-20T23:59:31.877Z,4.55
